createdAt,value
2018-02-19T00:01:01.440Z,86.80
2018-02-19T00:02:01.380Z,86.61
2018-02-19T00:03:54.331Z,86.52
2018-02-19T00:04:54.277Z,86.42
2018-02-19T00:06:47.456Z,86.42
2018-02-19T00:07:47.365Z,86.42
2018-02-19T00:09:42.039Z,86.42
2018-02-19T00:10:41.952Z,86.80
2018-02-19T00:12:34.891Z,86.52
2018-02-19T00:13:34.869Z,86.42
2018-02-19T00:15:27.921Z,86.61
2018-02-19T00:16:27.847Z,86.42
2018-02-19T00:18:21.035Z,86.42
2018-02-19T00:19:20.981Z,86.42
2018-02-19T00:21:13.950Z,86.42
2018-02-19T00:22:13.886Z,86.61
2018-02-19T00:24:06.957Z,86.90
2018-02-19T00:25:07.264Z,86.71
2018-02-19T00:26:59.762Z,86.99
2018-02-19T00:27:59.687Z,87.08
2018-02-19T00:29:52.637Z,86.71
2018-02-19T00:30:52.593Z,87.08
2018-02-19T00:32:45.764Z,86.90
2018-02-19T00:33:45.690Z,86.90
2018-02-19T00:35:39.503Z,86.80
2018-02-19T00:36:38.446Z,86.99
2018-02-19T00:38:31.396Z,87.18
2018-02-19T00:39:31.493Z,86.99
2018-02-19T00:41:24.297Z,86.90
2018-02-19T00:42:24.244Z,86.99
2018-02-19T00:44:17.416Z,86.80
2018-02-19T00:45:17.352Z,86.71
2018-02-19T00:47:10.291Z,86.90
2018-02-19T00:48:10.244Z,87.18
2018-02-19T00:50:03.011Z,86.99
2018-02-19T00:51:02.984Z,87.18
2018-02-19T00:52:55.916Z,87.08
2018-02-19T00:53:55.862Z,86.71
2018-02-19T00:55:48.668Z,86.80
2018-02-19T00:56:48.619Z,86.99
2018-02-19T00:58:41.570Z,86.80
2018-02-19T00:59:41.510Z,87.55
2018-02-19T01:01:34.434Z,87.27
2018-02-19T01:02:34.394Z,87.18
2018-02-19T01:04:27.333Z,87.46
2018-02-19T01:05:27.295Z,87.65
2018-02-19T01:07:20.110Z,86.90
2018-02-19T01:08:20.026Z,86.80
2018-02-19T01:10:12.828Z,87.08
2018-02-19T01:11:12.790Z,87.32
2018-02-19T01:13:05.726Z,87.42
2018-02-19T01:14:05.659Z,87.65
2018-02-19T01:15:58.609Z,87.65
2018-02-19T01:16:58.567Z,87.51
2018-02-19T01:18:51.514Z,87.37
2018-02-19T01:19:51.433Z,87.74
2018-02-19T01:21:44.242Z,87.89
2018-02-19T01:22:44.209Z,88.03
2018-02-19T01:24:37.170Z,88.03
2018-02-19T01:25:37.082Z,87.65
2018-02-19T01:27:30.031Z,87.98
2018-02-19T01:28:29.976Z,87.89
2018-02-19T01:30:22.908Z,87.84
2018-02-19T01:31:22.845Z,87.98
2018-02-19T01:33:15.678Z,88.03
2018-02-19T01:34:15.587Z,87.55
2018-02-19T01:36:08.621Z,87.89
2018-02-19T01:37:08.545Z,88.08
2018-02-19T01:39:01.468Z,87.61
2018-02-19T01:40:01.426Z,87.93
2018-02-19T01:41:54.389Z,87.79
2018-02-19T01:42:54.324Z,87.61
2018-02-19T01:44:47.501Z,88.27
2018-02-19T01:45:47.347Z,88.08
2018-02-19T01:47:40.300Z,88.27
2018-02-19T01:48:40.240Z,88.84
2018-02-19T01:50:33.176Z,88.36
2018-02-19T01:51:33.171Z,88.65
2018-02-19T01:53:26.336Z,88.27
2018-02-19T01:54:26.189Z,88.84
2018-02-19T01:56:19.007Z,89.03
2018-02-19T01:57:18.938Z,88.84
2018-02-19T01:59:11.865Z,89.03
2018-02-19T02:00:11.833Z,88.93
2018-02-19T02:02:04.775Z,89.40
2018-02-19T02:03:04.707Z,89.40
2018-02-19T02:04:57.799Z,89.59
2018-02-19T02:05:57.745Z,89.59
2018-02-19T02:07:50.698Z,89.31
2018-02-19T02:08:50.623Z,89.22
2018-02-19T02:10:43.535Z,89.40
2018-02-19T02:11:43.517Z,88.93
2018-02-19T02:13:36.310Z,89.31
2018-02-19T02:14:36.254Z,89.12
2018-02-19T02:16:29.185Z,89.40
2018-02-19T02:17:29.109Z,89.40
2018-02-19T02:19:22.065Z,89.54
2018-02-19T02:20:22.005Z,89.31
2018-02-19T02:22:14.820Z,89.22
2018-02-19T02:23:14.752Z,89.22
2018-02-19T02:25:07.674Z,89.31
2018-02-19T02:26:07.665Z,90.16
2018-02-19T02:28:00.464Z,89.12
2018-02-19T02:29:00.390Z,89.22
2018-02-19T02:30:53.420Z,89.03
2018-02-19T02:31:53.352Z,89.50
2018-02-19T02:33:46.324Z,89.22
2018-02-19T02:34:46.265Z,89.40
2018-02-19T02:36:39.221Z,89.31
2018-02-19T02:37:39.179Z,89.22
2018-02-19T02:39:32.291Z,89.03
2018-02-19T02:40:32.061Z,89.31
2018-02-19T02:42:25.012Z,89.22
2018-02-19T02:43:24.968Z,89.31
2018-02-19T02:45:17.906Z,89.03
2018-02-19T02:46:17.897Z,89.03
2018-02-19T02:48:10.785Z,90.06
2018-02-19T02:49:10.710Z,90.06
2018-02-19T02:51:03.564Z,89.87
2018-02-19T02:52:03.506Z,89.31
2018-02-19T02:53:56.463Z,89.31
2018-02-19T02:54:56.400Z,89.26
2018-02-19T02:56:49.350Z,90.06
2018-02-19T02:57:49.288Z,90.20
2018-02-19T02:59:42.227Z,90.11
2018-02-19T03:00:42.161Z,90.16
2018-02-19T03:02:35.032Z,89.36
2018-02-19T03:03:34.994Z,89.17
2018-02-19T03:05:27.956Z,89.45
2018-02-19T03:06:27.875Z,89.59
2018-02-19T03:08:20.826Z,89.50
2018-02-19T03:09:20.788Z,89.26
2018-02-19T03:11:13.732Z,89.03
2018-02-19T03:12:13.667Z,89.36
2018-02-19T03:14:06.550Z,88.84
2018-02-19T03:15:06.493Z,89.36
2018-02-19T03:16:59.412Z,88.93
2018-02-19T03:17:59.366Z,89.36
2018-02-19T03:19:52.319Z,89.45
2018-02-19T03:20:52.264Z,88.93
2018-02-19T03:22:45.196Z,88.88
2018-02-19T03:23:45.150Z,88.69
2018-02-19T03:25:37.962Z,88.88
2018-02-19T03:26:37.904Z,88.41
2018-02-19T03:28:30.855Z,88.41
2018-02-19T03:29:30.795Z,88.60
2018-02-19T03:31:23.753Z,88.41
2018-02-19T03:32:23.676Z,88.41
2018-02-19T03:34:16.617Z,88.22
2018-02-19T03:35:16.558Z,88.31
2018-02-19T03:37:09.388Z,88.50
2018-02-19T03:38:09.317Z,88.60
2018-02-19T03:40:02.337Z,88.69
2018-02-19T03:41:02.241Z,88.79
2018-02-19T03:42:55.166Z,88.79
2018-02-19T03:43:55.127Z,88.12
2018-02-19T03:45:48.066Z,88.22
2018-02-19T03:46:48.026Z,88.12
2018-02-19T03:48:41.136Z,87.65
2018-02-19T03:49:41.092Z,88.03
2018-02-19T03:51:34.077Z,88.12
2018-02-19T03:52:34.008Z,87.46
2018-02-19T03:54:26.932Z,87.46
2018-02-19T03:55:26.876Z,87.27
2018-02-19T03:57:20.058Z,87.84
2018-02-19T03:58:19.957Z,87.37
2018-02-19T04:00:12.917Z,87.18
2018-02-19T04:01:12.888Z,87.37
2018-02-19T04:03:05.915Z,87.46
2018-02-19T04:04:05.768Z,87.08
2018-02-19T04:05:58.586Z,86.80
2018-02-19T04:06:58.545Z,87.08
2018-02-19T04:08:51.650Z,86.90
2018-02-19T04:09:51.587Z,87.18
2018-02-19T04:11:44.410Z,87.18
2018-02-19T04:12:44.328Z,87.08
2018-02-19T04:14:37.260Z,87.18
2018-02-19T04:15:37.227Z,87.37
2018-02-19T04:17:30.358Z,87.46
2018-02-19T04:18:30.292Z,87.27
2018-02-19T04:20:23.227Z,86.52
2018-02-19T04:21:23.181Z,86.42
2018-02-19T04:23:16.134Z,86.52
2018-02-19T04:24:16.074Z,86.90
2018-02-19T04:26:09.184Z,86.80
2018-02-19T04:27:09.149Z,86.71
2018-02-19T04:29:02.081Z,86.71
2018-02-19T04:30:02.028Z,86.42
2018-02-19T04:31:54.970Z,86.52
2018-02-19T04:32:54.913Z,86.52
2018-02-19T04:34:48.142Z,86.42
2018-02-19T04:35:48.007Z,86.42
2018-02-19T04:37:40.945Z,86.52
2018-02-19T04:38:40.899Z,86.52
2018-02-19T04:40:33.853Z,87.18
2018-02-19T04:41:33.800Z,87.27
2018-02-19T04:43:26.942Z,87.18
2018-02-19T04:44:26.917Z,87.08
2018-02-19T04:46:19.681Z,87.18
2018-02-19T04:47:19.636Z,87.18
2018-02-19T04:49:12.587Z,86.90
2018-02-19T04:50:12.538Z,86.99
2018-02-19T04:52:05.674Z,87.18
2018-02-19T04:53:05.586Z,87.27
2018-02-19T04:54:58.529Z,86.80
2018-02-19T04:55:58.470Z,86.61
2018-02-19T04:57:51.421Z,87.27
2018-02-19T04:58:51.367Z,87.37
2018-02-19T05:00:44.715Z,87.27
2018-02-19T05:01:44.454Z,87.37
2018-02-19T05:03:37.386Z,86.99
2018-02-19T05:04:37.347Z,87.08
2018-02-19T05:06:30.165Z,86.99
2018-02-19T05:07:30.093Z,87.18
2018-02-19T05:09:23.053Z,87.55
2018-02-19T05:10:22.997Z,87.37
2018-02-19T05:12:16.069Z,87.37
2018-02-19T05:13:16.032Z,87.18
2018-02-19T05:15:08.987Z,87.18
2018-02-19T05:16:08.906Z,86.90
2018-02-19T05:18:01.860Z,87.37
2018-02-19T05:19:01.836Z,87.46
2018-02-19T05:20:54.964Z,87.55
2018-02-19T05:21:54.913Z,87.37
2018-02-19T05:23:47.837Z,87.37
2018-02-19T05:24:47.801Z,87.46
2018-02-19T05:26:40.753Z,87.37
2018-02-19T05:27:40.686Z,87.37
2018-02-19T05:29:34.017Z,87.55
2018-02-19T05:30:33.977Z,87.65
2018-02-19T05:32:26.933Z,86.80
2018-02-19T05:33:26.876Z,86.80
2018-02-19T05:35:20.021Z,86.80
2018-02-19T05:36:19.954Z,86.71
2018-02-19T05:38:12.886Z,86.99
2018-02-19T05:39:12.864Z,87.18
2018-02-19T05:41:05.828Z,87.08
2018-02-19T05:42:05.806Z,87.37
2018-02-19T05:43:58.539Z,87.18
2018-02-19T05:44:58.503Z,86.42
2018-02-19T05:46:51.387Z,86.33
2018-02-19T05:47:51.332Z,86.80
2018-02-19T05:49:44.277Z,86.42
2018-02-19T05:50:44.209Z,86.42
2018-02-19T05:52:37.142Z,86.61
2018-02-19T05:53:37.244Z,86.80
2018-02-19T05:55:30.076Z,86.23
2018-02-19T05:56:30.029Z,86.04
2018-02-19T05:58:23.100Z,86.04
2018-02-19T05:59:22.997Z,86.23
2018-02-19T06:01:15.969Z,86.33
2018-02-19T06:02:15.888Z,86.23
2018-02-19T06:04:09.807Z,86.14
2018-02-19T06:05:09.772Z,86.04
2018-02-19T06:07:02.622Z,86.33
2018-02-19T06:08:02.552Z,86.14
2018-02-19T06:09:55.497Z,86.04
2018-02-19T06:10:55.457Z,86.52
2018-02-19T06:12:48.459Z,85.95
2018-02-19T06:13:48.388Z,85.95
2018-02-19T06:15:41.318Z,86.71
2018-02-19T06:16:41.281Z,85.66
2018-02-19T06:18:34.391Z,85.95
2018-02-19T06:19:34.294Z,85.85
2018-02-19T06:21:27.245Z,85.95
2018-02-19T06:22:27.201Z,85.76
2018-02-19T06:24:20.218Z,85.76
2018-02-19T06:25:20.111Z,85.76
2018-02-19T06:27:13.048Z,85.95
2018-02-19T06:28:12.958Z,85.85
2018-02-19T06:30:05.911Z,85.66
2018-02-19T06:31:05.865Z,86.23
2018-02-19T06:32:58.817Z,85.85
2018-02-19T06:33:58.740Z,85.85
2018-02-19T06:35:51.672Z,85.85
2018-02-19T06:36:51.632Z,86.23
2018-02-19T06:38:44.494Z,85.57
2018-02-19T06:39:44.431Z,85.95
2018-02-19T06:41:37.392Z,85.85
2018-02-19T06:42:37.353Z,85.28
2018-02-19T06:44:30.429Z,85.57
2018-02-19T06:45:30.383Z,85.76
2018-02-19T06:47:23.178Z,85.28
2018-02-19T06:48:23.129Z,85.28
2018-02-19T06:50:16.013Z,85.28
2018-02-19T06:51:15.953Z,84.72
2018-02-19T06:53:08.888Z,84.91
2018-02-19T06:54:08.842Z,85.00
2018-02-19T06:56:01.758Z,85.00
2018-02-19T06:57:01.723Z,85.10
2018-02-19T06:58:54.699Z,85.00
2018-02-19T06:59:54.620Z,85.10
2018-02-19T07:01:47.662Z,85.00
2018-02-19T07:02:47.615Z,85.00
2018-02-19T07:04:40.555Z,85.24
2018-02-19T07:05:40.510Z,85.10
2018-02-19T07:07:33.295Z,85.00
2018-02-19T07:08:33.247Z,85.00
2018-02-19T07:10:26.506Z,85.24
2018-02-19T07:11:26.336Z,85.14
2018-02-19T07:13:19.279Z,84.67
2018-02-19T07:14:19.245Z,84.86
2018-02-19T07:16:12.191Z,84.58
2018-02-19T07:17:12.143Z,84.95
2018-02-19T07:19:05.358Z,84.10
2018-02-19T07:20:05.243Z,84.20
2018-02-19T07:21:58.204Z,84.58
2018-02-19T07:22:58.133Z,84.95
2018-02-19T07:24:51.079Z,84.39
2018-02-19T07:25:51.029Z,84.58
2018-02-19T07:27:44.124Z,84.20
2018-02-19T07:28:44.074Z,84.29
2018-02-19T07:30:37.066Z,84.01
2018-02-19T07:31:37.006Z,84.20
2018-02-19T07:33:29.963Z,83.91
2018-02-19T07:34:29.927Z,83.72
2018-02-19T07:36:22.721Z,83.91
2018-02-19T07:37:22.662Z,83.44
2018-02-19T07:39:15.457Z,82.97
2018-02-19T07:40:15.422Z,83.34
2018-02-19T07:42:08.418Z,83.25
2018-02-19T07:43:08.349Z,83.15
2018-02-19T07:45:01.253Z,82.97
2018-02-19T07:46:01.209Z,82.87
2018-02-19T07:47:54.180Z,82.78
2018-02-19T07:48:54.113Z,82.78
2018-02-19T07:50:47.064Z,82.59
2018-02-19T07:51:46.971Z,82.50
2018-02-19T07:53:39.924Z,82.59
2018-02-19T07:54:39.857Z,82.40
2018-02-19T07:56:32.667Z,82.59
2018-02-19T07:57:32.614Z,82.21
2018-02-19T07:59:25.582Z,81.93
2018-02-19T08:00:25.504Z,82.31
2018-02-19T08:02:18.651Z,81.83
2018-02-19T08:03:18.562Z,81.74
2018-02-19T08:05:11.524Z,81.64
2018-02-19T08:06:11.464Z,81.87
2018-02-19T08:08:04.435Z,81.77
2018-02-19T08:09:04.377Z,81.59
2018-02-19T08:10:57.554Z,81.59
2018-02-19T08:11:57.445Z,81.59
2018-02-19T08:13:50.412Z,81.02
2018-02-19T08:14:50.347Z,81.02
2018-02-19T08:16:43.283Z,81.21
2018-02-19T08:17:43.246Z,81.40
2018-02-19T08:19:36.403Z,80.83
2018-02-19T08:20:36.330Z,80.83
2018-02-19T08:22:29.273Z,79.98
2018-02-19T08:23:29.222Z,79.79
2018-02-19T08:25:22.184Z,80.36
2018-02-19T08:26:22.119Z,80.26
2018-02-19T08:28:14.925Z,79.88
2018-02-19T08:29:14.888Z,80.26
2018-02-19T08:31:07.905Z,79.88
2018-02-19T08:32:07.803Z,79.88
2018-02-19T08:34:00.760Z,79.50
2018-02-19T08:35:00.708Z,79.50
2018-02-19T08:36:53.659Z,79.32
2018-02-19T08:37:53.606Z,79.55
2018-02-19T08:39:46.533Z,78.88
2018-02-19T08:40:46.481Z,78.88
2018-02-19T08:42:39.427Z,78.31
2018-02-19T08:43:39.368Z,78.31
2018-02-19T08:45:32.344Z,78.03
2018-02-19T08:46:32.418Z,78.13
2018-02-19T08:48:25.240Z,78.31
2018-02-19T08:49:25.201Z,78.31
2018-02-19T08:51:18.041Z,77.65
2018-02-19T08:52:17.973Z,78.50
2018-02-19T08:54:10.933Z,78.13
2018-02-19T08:55:10.884Z,78.41
2018-02-19T08:57:03.855Z,78.31
2018-02-19T08:58:03.793Z,77.84
2018-02-19T08:59:57.049Z,77.56
2018-02-19T09:00:56.887Z,77.56
2018-02-19T09:02:49.893Z,77.46
2018-02-19T09:03:49.829Z,76.70
2018-02-19T09:05:43.803Z,76.51
2018-02-19T09:06:43.712Z,76.46
2018-02-19T09:08:36.529Z,76.55
2018-02-19T09:09:36.469Z,76.32
2018-02-19T09:11:29.317Z,75.98
2018-02-19T09:12:29.252Z,76.46
2018-02-19T09:14:22.198Z,76.36
2018-02-19T09:15:22.152Z,75.70
2018-02-19T09:17:15.123Z,76.08
2018-02-19T09:18:15.154Z,76.08
2018-02-19T09:20:08.003Z,76.08
2018-02-19T09:21:07.958Z,75.13
2018-02-19T09:23:01.042Z,76.08
2018-02-19T09:24:00.798Z,75.23
2018-02-19T09:25:55.295Z,74.66
2018-02-19T09:26:55.466Z,74.95
2018-02-19T09:28:48.183Z,75.23
2018-02-19T09:29:48.010Z,75.13
2018-02-19T09:31:40.974Z,75.42
2018-02-19T09:32:40.920Z,75.13
2018-02-19T09:34:33.867Z,74.56
2018-02-19T09:35:33.817Z,74.47
2018-02-19T09:37:27.111Z,74.66
2018-02-19T09:38:26.969Z,74.66
2018-02-19T09:40:19.968Z,74.85
2018-02-19T09:41:19.905Z,74.66
2018-02-19T09:43:14.362Z,74.51
2018-02-19T09:44:12.817Z,74.51
2018-02-19T09:46:05.919Z,74.22
2018-02-19T09:47:05.884Z,74.13
2018-02-19T09:48:58.945Z,73.94
2018-02-19T09:49:58.889Z,73.99
2018-02-19T09:51:53.597Z,74.22
2018-02-19T09:52:53.539Z,74.03
2018-02-19T09:54:46.711Z,73.75
2018-02-19T09:55:46.609Z,73.37
2018-02-19T09:57:41.530Z,73.56
2018-02-19T09:58:39.514Z,73.75
2018-02-19T10:00:32.314Z,74.32
2018-02-19T10:01:32.278Z,73.75
2018-02-19T10:03:25.226Z,73.46
2018-02-19T10:04:25.165Z,73.84
2018-02-19T10:06:18.054Z,73.56
2018-02-19T10:07:18.003Z,73.65
2018-02-19T10:09:10.968Z,73.84
2018-02-19T10:10:10.904Z,73.56
2018-02-19T10:12:03.868Z,73.37
2018-02-19T10:13:03.836Z,73.27
2018-02-19T10:14:57.072Z,72.80
2018-02-19T10:15:56.973Z,72.61
2018-02-19T10:17:49.847Z,71.85
2018-02-19T10:18:49.795Z,72.33
2018-02-19T10:20:42.769Z,72.42
2018-02-19T10:21:42.756Z,72.33
2018-02-19T10:23:35.859Z,71.85
2018-02-19T10:24:35.801Z,72.42
2018-02-19T10:26:29.117Z,72.04
2018-02-19T10:27:29.078Z,71.66
2018-02-19T10:29:22.318Z,71.19
2018-02-19T10:30:21.960Z,71.32
2018-02-19T10:32:14.855Z,71.32
2018-02-19T10:33:14.813Z,70.94
2018-02-19T10:35:07.839Z,70.84
2018-02-19T10:36:07.780Z,70.65
2018-02-19T10:38:00.938Z,70.56
2018-02-19T10:39:00.908Z,70.65
2018-02-19T10:40:55.005Z,70.75
2018-02-19T10:41:53.804Z,71.03
2018-02-19T10:43:46.748Z,70.37
2018-02-19T10:44:46.758Z,70.28
2018-02-19T10:46:39.893Z,70.18
2018-02-19T10:47:39.824Z,70.47
2018-02-19T10:49:32.839Z,68.95
2018-02-19T10:50:32.798Z,69.13
2018-02-19T10:52:25.748Z,68.57
2018-02-19T10:53:25.692Z,68.51
2018-02-19T10:55:19.670Z,68.04
2018-02-19T10:56:19.644Z,68.41
2018-02-19T10:58:12.850Z,67.75
2018-02-19T10:59:12.798Z,67.37
2018-02-19T11:01:05.920Z,66.99
2018-02-19T11:02:05.882Z,66.42
2018-02-19T11:03:58.873Z,66.04
2018-02-19T11:04:58.792Z,66.04
2018-02-19T11:06:51.747Z,65.31
2018-02-19T11:07:51.694Z,65.22
2018-02-19T11:09:44.617Z,64.37
2018-02-19T11:10:44.581Z,64.46
2018-02-19T11:12:37.547Z,64.37
2018-02-19T11:13:37.489Z,64.27
2018-02-19T11:15:30.431Z,64.08
2018-02-19T11:16:30.670Z,63.26
2018-02-19T11:18:23.657Z,63.23
2018-02-19T11:19:23.525Z,63.07
2018-02-19T11:21:16.471Z,63.13
2018-02-19T11:22:16.426Z,63.35
2018-02-19T11:24:09.450Z,63.13
2018-02-19T11:25:09.421Z,63.42
2018-02-19T11:27:02.475Z,63.64
2018-02-19T11:28:02.429Z,62.31
2018-02-19T11:29:55.420Z,62.40
2018-02-19T11:30:55.350Z,62.21
2018-02-19T11:32:48.311Z,62.02
2018-02-19T11:33:48.288Z,61.93
2018-02-19T11:35:42.392Z,62.31
2018-02-19T11:36:42.220Z,62.02
2018-02-19T11:38:35.039Z,62.12
2018-02-19T11:39:34.994Z,61.93
2018-02-19T11:41:27.951Z,63.17
2018-02-19T11:42:27.900Z,62.97
2018-02-19T11:44:20.736Z,62.31
2018-02-19T11:45:20.684Z,61.83
2018-02-19T11:47:13.551Z,61.36
2018-02-19T11:48:13.638Z,61.17
2018-02-19T11:50:06.482Z,61.26
2018-02-19T11:51:06.430Z,61.48
2018-02-19T11:52:59.406Z,61.10
2018-02-19T11:53:59.364Z,60.53
2018-02-19T11:55:52.316Z,59.30
2018-02-19T11:56:52.269Z,58.73
2018-02-19T11:58:45.124Z,58.95
2018-02-19T11:59:45.093Z,58.57
2018-02-19T12:01:38.068Z,58.37
2018-02-19T12:02:38.018Z,57.62
2018-02-19T12:04:31.024Z,57.14
2018-02-19T12:05:30.964Z,56.48
2018-02-19T12:07:23.791Z,56.60
2018-02-19T12:08:23.738Z,56.31
2018-02-19T12:10:16.777Z,55.39
2018-02-19T12:11:16.688Z,55.20
2018-02-19T12:13:09.505Z,54.15
2018-02-19T12:14:09.469Z,53.61
2018-02-19T12:16:02.448Z,52.18
2018-02-19T12:17:02.435Z,51.70
2018-02-19T12:18:55.209Z,51.25
2018-02-19T12:19:55.170Z,50.11
2018-02-19T12:21:47.990Z,48.99
2018-02-19T12:22:47.938Z,49.08
2018-02-19T12:24:40.910Z,48.13
2018-02-19T12:25:40.880Z,48.52
2018-02-19T12:27:33.866Z,47.58
2018-02-19T12:28:33.815Z,47.49
2018-02-19T12:30:26.754Z,47.49
2018-02-19T12:31:26.728Z,47.30
2018-02-19T12:33:19.792Z,47.49
2018-02-19T12:34:19.576Z,47.02
2018-02-19T12:36:12.544Z,46.34
2018-02-19T12:37:12.485Z,46.47
2018-02-19T12:39:05.480Z,45.51
2018-02-19T12:40:05.446Z,44.84
2018-02-19T12:41:58.634Z,44.46
2018-02-19T12:42:58.471Z,45.13
2018-02-19T12:44:51.466Z,44.48
2018-02-19T12:45:51.429Z,44.10
2018-02-19T12:47:44.386Z,43.51
2018-02-19T12:48:44.344Z,42.84
2018-02-19T12:50:37.456Z,44.08
2018-02-19T12:51:37.277Z,44.08
2018-02-19T12:53:30.361Z,44.38
2018-02-19T12:54:30.314Z,44.01
2018-02-19T12:56:23.136Z,43.03
2018-02-19T12:57:23.094Z,43.32
2018-02-19T12:59:16.276Z,44.06
2018-02-19T13:00:16.210Z,43.39
2018-02-19T13:02:09.184Z,43.96
2018-02-19T13:03:09.139Z,44.63
2018-02-19T13:05:02.236Z,45.01
2018-02-19T13:06:02.189Z,45.10
2018-02-19T13:07:55.185Z,45.39
2018-02-19T13:08:55.159Z,45.47
2018-02-19T13:10:48.125Z,46.11
2018-02-19T13:11:48.065Z,46.87
2018-02-19T13:13:41.072Z,47.06
2018-02-19T13:14:41.023Z,46.49
2018-02-19T13:16:33.887Z,47.16
2018-02-19T13:17:33.806Z,46.66
2018-02-19T13:19:27.762Z,47.80
2018-02-19T13:20:27.722Z,47.42
2018-02-19T13:22:20.681Z,48.30
2018-02-19T13:23:20.623Z,48.37
2018-02-19T13:25:13.861Z,48.18
2018-02-19T13:26:13.714Z,48.37
2018-02-19T13:28:06.714Z,48.63
2018-02-19T13:29:06.657Z,49.96
2018-02-19T13:30:59.682Z,49.30
2018-02-19T13:31:59.627Z,49.20
2018-02-19T13:33:52.533Z,49.01
2018-02-19T13:34:52.400Z,49.58
2018-02-19T13:36:45.410Z,50.06
2018-02-19T13:37:45.165Z,50.15
2018-02-19T13:39:38.136Z,51.10
2018-02-19T13:40:38.080Z,50.35
2018-02-19T13:42:31.062Z,50.06
2018-02-19T13:43:31.116Z,49.77
2018-02-19T13:45:24.195Z,49.58
2018-02-19T13:46:24.147Z,49.58
2018-02-19T13:48:17.152Z,48.82
2018-02-19T13:49:17.091Z,49.40
2018-02-19T13:51:10.047Z,49.85
2018-02-19T13:52:10.241Z,50.32
2018-02-19T13:54:02.859Z,50.99
2018-02-19T13:55:02.785Z,51.10
2018-02-19T13:56:57.032Z,51.04
2018-02-19T13:57:55.555Z,50.75
2018-02-19T13:59:48.747Z,49.99
2018-02-19T14:00:48.702Z,49.99
2018-02-19T14:02:41.884Z,48.58
2018-02-19T14:03:41.828Z,48.21
2018-02-19T14:05:34.808Z,47.82
2018-02-19T14:06:34.780Z,47.37
2018-02-19T14:08:27.702Z,46.23
2018-02-19T14:09:27.664Z,45.97
2018-02-19T14:11:20.474Z,45.75
2018-02-19T14:12:20.417Z,46.23
2018-02-19T14:14:13.448Z,45.49
2018-02-19T14:15:13.361Z,45.28
2018-02-19T14:17:07.339Z,46.28
2018-02-19T14:18:07.327Z,47.25
2018-02-19T14:20:00.271Z,47.44
2018-02-19T14:21:00.258Z,47.34
2018-02-19T14:22:53.209Z,47.34
2018-02-19T14:23:53.181Z,46.97
2018-02-19T14:25:46.150Z,46.84
2018-02-19T14:26:46.099Z,47.23
2018-02-19T14:28:39.022Z,47.42
2018-02-19T14:29:38.998Z,47.23
2018-02-19T14:31:31.833Z,47.49
2018-02-19T14:32:31.772Z,48.25
2018-02-19T14:34:24.737Z,48.63
2018-02-19T14:35:24.570Z,48.16
2018-02-19T14:37:17.509Z,48.92
2018-02-19T14:38:17.480Z,48.54
2018-02-19T14:40:10.469Z,49.46
2018-02-19T14:41:10.406Z,49.85
2018-02-19T14:43:03.531Z,49.65
2018-02-19T14:44:03.482Z,50.23
2018-02-19T14:45:56.453Z,50.13
2018-02-19T14:46:56.403Z,49.75
2018-02-19T14:48:49.247Z,50.32
2018-02-19T14:49:49.292Z,50.79
2018-02-19T14:51:42.427Z,50.89
2018-02-19T14:52:42.320Z,50.32
2018-02-19T14:54:35.253Z,50.77
2018-02-19T14:55:35.215Z,51.34
2018-02-19T14:57:28.188Z,52.48
2018-02-19T14:58:28.128Z,51.82
2018-02-19T15:00:21.291Z,51.62
2018-02-19T15:01:21.170Z,52.10
2018-02-19T15:03:14.147Z,52.58
2018-02-19T15:04:14.077Z,51.82
2018-02-19T15:06:07.048Z,51.25
2018-02-19T15:07:06.990Z,52.01
2018-02-19T15:09:00.072Z,51.82
2018-02-19T15:10:00.035Z,51.98
2018-02-19T15:11:53.023Z,52.45
2018-02-19T15:12:52.952Z,52.93
2018-02-19T15:14:45.940Z,53.88
2018-02-19T15:15:45.918Z,53.88
2018-02-19T15:17:38.745Z,53.59
2018-02-19T15:18:38.698Z,53.19
2018-02-19T15:20:31.630Z,53.47
2018-02-19T15:21:31.617Z,53.66
2018-02-19T15:23:24.574Z,53.85
2018-02-19T15:24:24.535Z,53.95
2018-02-19T15:26:17.500Z,53.47
2018-02-19T15:27:17.430Z,53.66
2018-02-19T15:29:10.528Z,53.00
2018-02-19T15:30:10.442Z,54.05
2018-02-19T15:32:03.264Z,53.19
2018-02-19T15:33:03.206Z,53.38
2018-02-19T15:34:56.157Z,53.00
2018-02-19T15:35:56.122Z,53.47
2018-02-19T15:37:49.358Z,53.19
2018-02-19T15:38:49.208Z,53.45
2018-02-19T15:40:42.144Z,54.58
2018-02-19T15:41:42.108Z,54.68
2018-02-19T15:43:35.101Z,54.87
2018-02-19T15:44:35.032Z,55.16
2018-02-19T15:46:27.841Z,55.54
2018-02-19T15:47:27.804Z,55.54
2018-02-19T15:49:20.858Z,55.82
2018-02-19T15:50:20.758Z,55.35
2018-02-19T15:52:13.727Z,55.91
2018-02-19T15:53:13.660Z,55.63
2018-02-19T15:55:06.623Z,55.82
2018-02-19T15:56:06.569Z,55.82
2018-02-19T15:57:59.416Z,56.08
2018-02-19T15:58:59.332Z,57.03
2018-02-19T16:00:52.278Z,56.93
2018-02-19T16:01:52.106Z,56.65
2018-02-19T16:03:45.084Z,56.17
2018-02-19T16:04:45.002Z,56.46
2018-02-19T16:06:37.938Z,56.36
2018-02-19T16:07:37.899Z,56.36
2018-02-19T16:09:31.098Z,56.84
2018-02-19T16:10:30.946Z,57.40
2018-02-19T16:12:23.939Z,57.12
2018-02-19T16:13:23.902Z,57.03
2018-02-19T16:15:16.872Z,57.03
2018-02-19T16:16:16.810Z,56.93
2018-02-19T16:18:10.004Z,57.40
2018-02-19T16:19:09.911Z,57.50
2018-02-19T16:21:02.849Z,56.17
2018-02-19T16:22:02.774Z,55.70
2018-02-19T16:23:55.779Z,57.03
2018-02-19T16:24:55.692Z,57.50
2018-02-19T16:26:48.852Z,56.74
2018-02-19T16:27:48.691Z,55.70
2018-02-19T16:29:41.698Z,55.70
2018-02-19T16:30:41.601Z,54.94
2018-02-19T16:32:34.555Z,54.94
2018-02-19T16:33:34.524Z,54.46
2018-02-19T16:35:27.320Z,55.04
2018-02-19T16:36:27.275Z,55.13
2018-02-19T16:38:20.062Z,55.89
2018-02-19T16:39:20.021Z,55.79
2018-02-19T16:41:12.990Z,56.08
2018-02-19T16:42:12.800Z,55.60
2018-02-19T16:44:05.723Z,56.17
2018-02-19T16:45:05.702Z,56.65
2018-02-19T16:46:58.659Z,55.89
2018-02-19T16:47:58.702Z,55.70
2018-02-19T16:49:51.964Z,56.27
2018-02-19T16:50:51.867Z,56.36
2018-02-19T16:52:45.154Z,56.55
2018-02-19T16:53:45.119Z,56.46
2018-02-19T16:55:38.128Z,57.40
2018-02-19T16:56:38.033Z,57.98
2018-02-19T16:58:30.977Z,56.93
2018-02-19T16:59:30.921Z,57.50
2018-02-19T17:01:23.932Z,57.38
2018-02-19T17:02:23.863Z,57.57
2018-02-19T17:04:16.756Z,56.99
2018-02-19T17:05:16.742Z,57.85
2018-02-19T17:07:09.693Z,57.19
2018-02-19T17:08:09.622Z,57.57
2018-02-19T17:10:02.568Z,57.95
2018-02-19T17:11:02.617Z,57.66
2018-02-19T17:12:55.758Z,58.70
2018-02-19T17:13:55.643Z,58.99
2018-02-19T17:15:48.440Z,58.23
2018-02-19T17:16:48.403Z,58.33
2018-02-19T17:18:41.385Z,59.18
2018-02-19T17:19:41.321Z,58.61
2018-02-19T17:21:34.145Z,59.27
2018-02-19T17:22:34.071Z,59.37
2018-02-19T17:24:27.284Z,59.75
2018-02-19T17:25:27.153Z,59.84
2018-02-19T17:27:20.164Z,60.13
2018-02-19T17:28:20.091Z,59.94
2018-02-19T17:30:13.032Z,59.84
2018-02-19T17:31:12.988Z,59.84
2018-02-19T17:33:05.820Z,60.31
2018-02-19T17:34:05.767Z,60.31
2018-02-19T17:35:58.807Z,60.13
2018-02-19T17:36:58.766Z,60.31
2018-02-19T17:38:51.720Z,60.70
2018-02-19T17:39:51.689Z,60.98
2018-02-19T17:41:44.611Z,60.79
2018-02-19T17:42:44.572Z,60.98
2018-02-19T17:44:37.392Z,61.27
2018-02-19T17:45:37.330Z,61.27
2018-02-19T17:47:30.315Z,61.36
2018-02-19T17:48:30.271Z,61.27
2018-02-19T17:50:23.311Z,60.70
2018-02-19T17:51:23.293Z,60.31
2018-02-19T17:53:16.469Z,61.36
2018-02-19T17:54:16.423Z,61.36
2018-02-19T17:56:09.394Z,61.93
2018-02-19T17:57:09.328Z,61.46
2018-02-19T17:59:02.331Z,62.69
2018-02-19T18:00:02.259Z,62.59
2018-02-19T18:01:55.060Z,62.69
2018-02-19T18:02:55.017Z,62.69
2018-02-19T18:04:47.987Z,62.50
2018-02-19T18:05:47.937Z,62.50
2018-02-19T18:07:41.053Z,62.78
2018-02-19T18:08:40.993Z,62.40
2018-02-19T18:10:34.253Z,62.88
2018-02-19T18:11:34.100Z,63.07
2018-02-19T18:13:27.034Z,63.07
2018-02-19T18:14:26.993Z,62.97
2018-02-19T18:16:19.830Z,62.88
2018-02-19T18:17:19.769Z,63.17
2018-02-19T18:19:12.789Z,62.02
2018-02-19T18:20:12.724Z,62.31
2018-02-19T18:22:05.726Z,61.74
2018-02-19T18:23:05.654Z,61.93
2018-02-19T18:24:58.707Z,61.83
2018-02-19T18:25:58.646Z,62.21
2018-02-19T18:27:51.605Z,61.93
2018-02-19T18:28:51.552Z,62.02
2018-02-19T18:30:44.418Z,62.02
2018-02-19T18:31:44.349Z,62.69
2018-02-19T18:33:37.399Z,63.45